Terminal Aerodrome Forecast
Issued by NWS Wilmington, OH

Current Version | Previous Version | Graphics & Text | Print | Product List | Glossary On
Versions: 1 2 3 4 5 6 7 8 9 10 11 12 13 14 15 16 17 18 19 20 21 22
000
FTUS41 KILN 261455 AAA
TAFCVG
TAF AMD
KCVG 261455Z 2615/2718 28010G16KT P6SM SCT050
     FM262300 27006KT P6SM SCT060 BKN120
     FM270500 30004KT P6SM OVC070
     FM270900 32005KT P6SM FEW050=

USA.gov is the U.S. government's official web portal to all federal, state and local government web resources and services.